Time;durP1;ratioP1;P1;durP2;ratioP2;P2;SDS_P1;SDS_P2;PMS_P1;PMS_P2;Temp;Humidity;BMP_temperature;BMP_pressure;BME280_temperature;BME280_humidity;BME280_pressure;Samples;Min_cycle;Max_cycle;Signal;HPM_P1;HPM_P2
2022/09/26 08:01:53;;;;;;;4.70;2.72;;;;;;;11.49;87.06;99946.13;5204380;27;4078747;-72
2022/09/26 08:04:24;;;;;;;6.78;2.72;;;;;;;11.51;87.36;99943.06;5342884;27;20032;-73
2022/09/26 08:06:56;;;;;;;6.03;2.83;;;;;;;11.57;87.09;99929.84;5340097;27;20486;-72
2022/09/26 08:09:27;;;;;;;3.13;2.50;;;;;;;11.57;87.43;99927.88;5326035;27;20013;-72
2022/09/26 08:11:59;;;;;;;5.15;2.10;;;;;;;11.60;87.61;99924.47;5300192;28;20059;-72
2022/09/26 08:14:30;;;;;;;5.22;3.38;;;;;;;11.63;87.31;99923.84;5301164;28;20487;-72
2022/09/26 08:17:02;;;;;;;5.85;2.47;;;;;;;11.66;87.15;99928.75;5311044;28;20072;-72
2022/09/26 08:19:34;;;;;;;4.57;2.20;;;;;;;11.71;86.86;99911.97;5342493;27;20024;-72
2022/09/26 08:22:06;;;;;;;6.47;2.60;;;;;;;11.78;87.22;99922.59;5343504;27;20019;-71
2022/09/26 08:24:37;;;;;;;3.63;2.22;;;;;;;11.74;87.20;99919.66;5322668;27;20162;-73
2022/09/26 08:27:09;;;;;;;5.10;2.63;;;;;;;11.76;87.55;99927.66;5322126;28;20099;-72
2022/09/26 08:29:40;;;;;;;5.38;2.72;;;;;;;11.81;87.02;99921.13;5321744;28;20082;-74
2022/09/26 08:32:12;;;;;;;3.38;2.40;;;;;;;11.82;87.30;99914.44;5320971;28;20020;-71
2022/09/26 08:34:44;;;;;;;5.93;2.45;;;;;;;11.82;86.85;99920.81;5332374;28;20015;-71
2022/09/26 08:37:15;;;;;;;2.63;1.95;;;;;;;11.75;86.89;99904.59;5343693;27;20412;-70
2022/09/26 08:39:47;;;;;;;4.93;2.67;;;;;;;11.79;87.76;99913.13;5336824;28;20048;-70
2022/09/26 08:42:27;;;;;;;6.53;3.30;;;;;;;11.86;87.26;99912.66;5321744;28;20028;-70
2022/09/26 08:48:33;;;;;;;5.65;3.33;;;;;;;11.94;87.40;99896.06;5321964;28;20126;-70
2022/09/26 08:51:31;;;;;;;3.95;2.40;;;;;;;12.03;86.83;99898.03;5326808;28;20034;-73
2022/09/26 08:54:11;;;;;;;4.13;2.03;;;;;;;12.02;86.56;99888.91;5342249;27;20019;-72
2022/09/26 08:56:54;;;;;;;7.15;2.78;;;;;;;12.04;86.13;99888.56;5339160;27;20035;-74
2022/09/26 08:59:45;;;;;;;6.78;2.50;;;;;;;12.06;86.68;99884.31;5308881;28;20028;-72
2022/09/26 09:02:30;;;;;;;5.57;3.10;;;;;;;12.03;87.13;99886.94;5300196;28;20108;-72
2022/09/26 09:05:14;;;;;;;5.22;2.33;;;;;;;12.05;87.62;99888.25;5307195;28;20024;-73
2022/09/26 09:07:50;;;;;;;5.32;2.28;;;;;;;12.05;87.31;99887.44;5321829;28;20036;-72
2022/09/26 09:11:04;;;;;;;20.50;15.48;;;;;;;12.16;87.39;99881.22;5319560;27;20020;-73
2022/09/26 09:13:47;;;;;;;5.57;2.63;;;;;;;12.15;88.03;99887.94;5284627;28;20043;-72
2022/09/26 09:16:41;;;;;;;6.05;2.40;;;;;;;12.29;89.16;99873.09;5306646;28;20379;-72
2022/09/26 09:19:36;;;;;;;7.00;3.00;;;;;;;12.37;88.70;99864.78;5297717;28;20044;-71
2022/09/26 09:22:43;;;;;;;5.40;2.47;;;;;;;12.30;88.98;99869.19;5305625;28;20032;-73
2022/09/26 09:25:22;;;;;;;11.05;3.35;;;;;;;12.31;90.37;99854.13;5313245;28;20103;-73
2022/09/26 09:28:31;;;;;;;3.88;2.53;;;;;;;12.36;91.22;99845.63;5306159;28;20052;-72
2022/09/26 09:31:10;;;;;;;7.18;2.60;;;;;;;12.26;91.24;99834.81;5314175;28;20048;-72
2022/09/26 09:33:46;;;;;;;6.53;3.13;;;;;;;12.27;92.55;99842.00;5307228;28;20032;-72
2022/09/26 09:36:21;;;;;;;5.63;2.70;;;;;;;12.23;91.94;99838.25;5305851;28;20020;-72
2022/09/26 09:38:57;;;;;;;7.32;2.75;;;;;;;12.27;92.62;99831.72;5306256;28;20028;-72
2022/09/26 09:41:49;;;;;;;7.40;2.50;;;;;;;12.25;93.80;99827.63;5306511;28;20068;-72
2022/09/26 09:44:20;;;;;;;5.15;2.60;;;;;;;12.20;93.77;99819.47;5307172;28;20055;-72
2022/09/26 09:46:52;;;;;;;23.00;3.60;;;;;;;12.25;94.33;99811.78;5305911;28;20078;-73
2022/09/26 09:49:23;;;;;;;9.55;3.42;;;;;;;12.22;94.34;99811.59;5305084;28;20105;-73
2022/09/26 09:52:13;;;;;;;4.82;3.28;;;;;;;12.20;95.25;99800.00;5306203;28;20028;-72
2022/09/26 09:55:09;;;;;;;6.80;3.03;;;;;;;12.25;96.02;99805.41;5305671;28;20437;-73
2022/09/26 09:57:49;;;;;;;13.02;7.50;;;;;;;12.17;94.89;99795.91;5305383;28;20421;-76
2022/09/26 10:00:28;;;;;;;4.90;2.80;;;;;;;12.20;96.43;99791.66;5321374;28;20047;-76
2022/09/26 10:03:36;;;;;;;4.40;2.60;;;;;;;12.17;96.31;99785.59;5326464;28;20032;-76
2022/09/26 10:06:12;;;;;;;5.30;3.00;;;;;;;12.10;96.21;99782.47;5311294;28;20021;-76
2022/09/26 10:08:43;;;;;;;4.75;3.05;;;;;;;12.10;97.13;99776.13;5295245;28;20024;-75
2022/09/26 10:11:38;;;;;;;5.03;2.70;;;;;;;12.07;96.50;99771.22;5304931;28;20374;-72
2022/09/26 10:14:27;;;;;;;7.35;3.08;;;;;;;12.13;97.49;99770.72;5306251;28;20012;-72
2022/09/26 10:17:10;;;;;;;6.20;3.63;;;;;;;12.13;97.00;99759.59;5318354;28;20375;-72
2022/09/26 10:19:43;;;;;;;3.38;2.72;;;;;;;12.15;97.66;99762.88;5326837;27;20032;-72
2022/09/26 10:22:23;;;;;;;6.45;3.55;;;;;;;12.13;97.45;99754.03;5317936;28;20051;-72
2022/09/26 10:25:02;;;;;;;7.32;4.25;;;;;;;12.12;98.44;99752.41;5303985;28;20361;-73
2022/09/26 10:27:39;;;;;;;7.38;2.97;;;;;;;12.08;97.63;99756.97;5305408;28;20031;-74
2022/09/26 10:30:16;;;;;;;6.28;3.17;;;;;;;12.07;98.17;99749.78;5305545;28;20074;-74
2022/09/26 10:32:57;;;;;;;7.57;3.42;;;;;;;12.13;98.74;99744.88;5306957;28;20166;-74
2022/09/26 10:35:41;;;;;;;4.95;2.92;;;;;;;12.06;98.76;99742.59;5326813;28;20479;-72
2022/09/26 10:38:28;;;;;;;7.30;3.03;;;;;;;12.01;98.38;99737.19;5325543;27;20386;-72
2022/09/26 10:41:01;;;;;;;4.82;2.97;;;;;;;12.04;98.73;99733.78;5288951;28;20427;-72
2022/09/26 10:43:34;;;;;;;4.10;3.10;;;;;;;12.06;99.19;99733.44;5305435;28;20028;-71
2022/09/26 10:46:15;;;;;;;5.70;4.10;;;;;;;12.28;99.96;99733.28;5304445;28;20483;-69
2022/09/26 10:48:52;;;;;;;4.82;2.78;;;;;;;12.13;98.28;99737.34;5304047;28;20024;-71
2022/09/26 10:51:31;;;;;;;6.78;3.30;;;;;;;12.27;99.87;99726.09;5320177;28;20016;-71
2022/09/26 10:54:05;;;;;;;7.43;3.20;;;;;;;12.14;97.49;99732.59;5317042;28;20093;-71
2022/09/26 10:56:44;;;;;;;4.63;3.20;;;;;;;12.45;98.28;99726.88;5304948;28;20020;-69
2022/09/26 10:59:23;;;;;;;6.38;2.97;;;;;;;12.40;98.11;99724.28;5310636;28;20122;-70
2022/09/26 11:01:57;;;;;;;5.25;3.20;;;;;;;12.30;97.94;99707.94;5325653;28;20440;-69
2022/09/26 11:07:32;;;;;;;9.13;7.05;;;;;;;12.26;99.23;99724.44;5310950;28;20027;-70
2022/09/26 11:10:10;;;;;;;3.70;3.13;;;;;;;12.22;98.79;99711.50;5299229;28;20028;-72
2022/09/26 11:13:14;;;;;;;5.75;3.25;;;;;;;12.29;100.00;99711.84;5304280;28;20111;-72
2022/09/26 11:16:09;;;;;;;6.70;3.67;;;;;;;12.37;100.00;99702.66;5304468;28;20076;-72
2022/09/26 11:18:43;;;;;;;7.43;3.85;;;;;;;12.26;100.00;99696.63;5304440;28;20519;-71
2022/09/26 11:21:33;;;;;;;5.55;3.63;;;;;;;12.21;100.00;99694.03;5303401;28;20032;-70
2022/09/26 11:24:27;;;;;;;8.20;5.00;;;;;;;12.29;100.00;99697.94;5309905;28;20475;-68
2022/09/26 11:27:05;;;;;;;6.95;3.03;;;;;;;12.27;100.00;99687.19;5325597;28;20443;-70
2022/09/26 11:30:00;;;;;;;5.68;3.45;;;;;;;12.39;100.00;99689.25;5302937;28;20032;-71
2022/09/26 11:32:39;;;;;;;6.85;3.08;;;;;;;12.65;100.00;99685.59;5304448;28;20145;-69
2022/09/26 11:35:19;;;;;;;9.95;4.57;;;;;;;12.35;99.95;99685.53;5302713;28;20103;-71
2022/09/26 11:38:12;;;;;;;4.88;2.85;;;;;;;12.54;100.00;99674.84;5303497;28;20108;-69
2022/09/26 11:41:17;;;;;;;5.40;2.75;;;;;;;12.36;100.00;99679.63;5306460;28;20058;-70
2022/09/26 11:43:58;;;;;;;5.10;2.80;;;;;;;12.38;100.00;99679.31;5276217;28;20464;-70
2022/09/26 11:47:01;;;;;;;4.55;3.00;;;;;;;12.21;100.00;99673.75;5285818;28;20043;-72
2022/09/26 11:49:58;;;;;;;4.10;2.80;;;;;;;12.28;100.00;99677.69;5294658;28;20059;-71
2022/09/26 11:53:08;;;;;;;5.65;3.60;;;;;;;12.22;100.00;99670.66;5303267;28;20521;-71
2022/09/26 11:56:18;;;;;;;4.35;2.55;;;;;;;12.36;100.00;99671.28;5301967;28;20047;-71
2022/09/26 11:59:16;;;;;;;6.00;2.85;;;;;;;12.44;100.00;99669.63;5304182;28;20448;-68
2022/09/26 12:01:53;;;;;;;5.93;2.50;;;;;;;12.43;100.00;99665.22;5293602;28;20044;-71
2022/09/26 12:05:13;;;;;;;7.53;3.20;;;;;;;12.44;100.00;99663.25;5302531;28;20024;-71
2022/09/26 12:07:59;;;;;;;3.72;2.80;;;;;;;12.40;100.00;99663.91;5293745;28;20422;-70
2022/09/26 12:10:38;;;;;;;4.35;3.00;;;;;;;12.35;100.00;99668.84;5302871;28;20024;-69
2022/09/26 12:13:21;;;;;;;3.22;2.92;;;;;;;12.25;100.00;99660.84;5303298;28;20403;-70
2022/09/26 12:16:09;;;;;;;6.75;4.18;;;;;;;12.31;100.00;99659.53;5315412;28;20024;-71
2022/09/26 12:19:07;;;;;;;4.72;2.70;;;;;;;12.34;100.00;99658.84;5311543;28;20555;-72
2022/09/26 12:22:28;;;;;;;3.47;2.58;;;;;;;12.39;100.00;99655.91;5312926;28;20110;-68
2022/09/26 12:25:09;;;;;;;5.40;2.85;;;;;;;12.37;100.00;99652.63;5302704;28;20028;-69
2022/09/26 12:27:48;;;;;;;3.20;2.33;;;;;;;12.49;100.00;99638.84;5302788;28;20043;-72
2022/09/26 12:30:28;;;;;;;6.45;2.63;;;;;;;12.45;100.00;99642.63;5303266;28;20357;-71
2022/09/26 12:33:19;;;;;;;3.85;2.35;;;;;;;12.47;100.00;99640.34;5315330;28;20024;-71
2022/09/26 12:36:17;;;;;;;2.88;2.08;;;;;;;12.53;100.00;99634.28;5325087;28;20031;-72
2022/09/26 12:39:04;;;;;;;3.92;2.33;;;;;;;12.50;99.64;99643.28;5310635;28;20032;-67
2022/09/26 12:42:00;;;;;;;5.00;2.90;;;;;;;12.66;99.90;99632.44;5303414;28;20024;-70
2022/09/26 12:44:50;;;;;;;3.30;2.45;;;;;;;12.57;99.44;99628.84;5302978;28;20035;-68
2022/09/26 12:47:22;;;;;;;3.60;2.20;;;;;;;12.60;99.70;99620.69;5304870;28;20467;-68
2022/09/26 12:49:59;;;;;;;3.63;2.20;;;;;;;12.51;99.14;99622.66;5307224;28;20020;-71
2022/09/26 12:52:52;;;;;;;5.05;3.30;;;;;;;12.53;99.85;99617.59;5305786;28;20115;-71
2022/09/26 12:55:38;;;;;;;4.43;2.42;;;;;;;12.53;99.22;99614.81;5306892;28;20073;-70
2022/09/26 12:58:19;;;;;;;3.38;2.35;;;;;;;12.60;99.06;99617.91;5306594;28;20036;-70
2022/09/26 13:01:28;;;;;;;4.40;2.40;;;;;;;12.49;99.53;99605.50;5306376;28;20075;-70
2022/09/26 13:04:11;;;;;;;3.70;2.45;;;;;;;12.38;100.00;99610.59;5307695;28;20478;-70
2022/09/26 13:06:57;;;;;;;4.18;2.53;;;;;;;12.30;100.00;99603.09;5323442;27;20020;-70
2022/09/26 13:10:14;;;;;;;3.20;2.20;;;;;;;12.36;100.00;99601.78;5305720;28;20070;-70
2022/09/26 13:13:01;;;;;;;8.45;6.95;;;;;;;12.32;100.00;99600.81;5276546;28;20048;-68
2022/09/26 13:15:42;;;;;;;4.25;2.38;;;;;;;12.30;100.00;99597.56;5305304;28;20024;-70
2022/09/26 13:18:27;;;;;;;4.38;3.08;;;;;;;12.52;100.00;99593.69;5306110;28;20024;-70
2022/09/26 13:21:04;;;;;;;4.05;1.90;;;;;;;12.41;100.00;99584.09;5306168;28;20096;-69
2022/09/26 13:23:40;;;;;;;3.88;2.10;;;;;;;12.71;100.00;99586.94;5307876;28;20122;-70
2022/09/26 13:26:26;;;;;;;2.72;2.20;;;;;;;12.44;100.00;99586.22;5306477;28;20040;-73
2022/09/26 13:29:07;;;;;;;4.53;2.95;;;;;;;12.37;100.00;99589.53;5305404;28;20471;-76
2022/09/26 13:31:43;;;;;;;3.38;2.70;;;;;;;12.40;100.00;99579.69;5305528;28;20031;-71
2022/09/26 13:34:33;;;;;;;6.45;3.08;;;;;;;12.45;100.00;99576.72;5305498;28;20028;-74
2022/09/26 13:37:27;;;;;;;2.17;1.85;;;;;;;12.61;100.00;99575.03;5306557;28;20026;-72
2022/09/26 13:40:09;;;;;;;2.40;2.00;;;;;;;12.44;100.00;99569.53;5310381;28;20024;-74
2022/09/26 13:42:46;;;;;;;3.08;2.70;;;;;;;12.39;100.00;99561.38;5325389;28;20466;-74
2022/09/26 13:45:32;;;;;;;3.03;2.20;;;;;;;12.37;100.00;99577.56;5305934;28;20019;-72
2022/09/26 13:48:19;;;;;;;3.90;2.42;;;;;;;12.42;100.00;99565.44;5304824;28;20085;-68
2022/09/26 13:50:56;;;;;;;3.97;2.30;;;;;;;12.48;100.00;99564.94;5305820;28;20351;-71
2022/09/26 13:53:36;;;;;;;6.03;2.67;;;;;;;12.45;100.00;99562.84;5312685;28;20076;-70
2022/09/26 13:56:47;;;;;;;3.42;2.65;;;;;;;12.70;100.00;99566.63;5326531;28;20066;-69
2022/09/26 13:59:20;;;;;;;3.17;2.30;;;;;;;12.60;100.00;99561.44;5284247;28;20035;-70
2022/09/26 14:02:18;;;;;;;6.03;2.97;;;;;;;12.56;100.00;99550.19;5284201;28;20053;-68
2022/09/26 14:05:12;;;;;;;3.95;3.20;;;;;;;12.52;100.00;99560.31;5304814;28;20054;-70
2022/09/26 14:10:52;;;;;;;2.70;2.50;;;;;;;12.57;100.00;99550.97;5305017;28;20471;-71
2022/09/26 14:13:36;;;;;;;2.33;1.98;;;;;;;12.58;100.00;99539.53;5305421;28;20031;-71
2022/09/26 14:16:26;;;;;;;3.58;2.25;;;;;;;12.69;100.00;99536.38;5290651;28;20016;-72
2022/09/26 14:19:12;;;;;;;4.03;1.98;;;;;;;12.66;100.00;99535.06;5305026;28;20529;-70
2022/09/26 14:22:01;;;;;;;;;;;;;;;12.84;100.00;99533.00;5305554;28;20024;-71
2022/09/26 14:24:38;;;;;;;7.50;2.53;;;;;;;12.69;100.00;99528.84;5304671;28;19999;-71
2022/09/26 14:27:09;;;;;;;2.58;1.98;;;;;;;12.99;100.00;99526.06;5305409;28;20020;-71
2022/09/26 14:29:42;;;;;;;1.90;1.80;;;;;;;12.77;100.00;99519.63;5304806;28;20027;-71
2022/09/26 14:32:16;;;;;;;2.38;1.85;;;;;;;12.80;100.00;99518.94;5308038;28;20047;-71
2022/09/26 14:34:56;;;;;;;4.65;2.17;;;;;;;12.78;100.00;99518.50;5305154;28;20028;-72
2022/09/26 14:37:39;;;;;;;3.45;2.05;;;;;;;12.96;100.00;99513.63;5286886;28;20027;-74
2022/09/26 14:40:25;;;;;;;2.50;1.75;;;;;;;12.88;100.00;99511.69;5302295;28;20020;-70
2022/09/26 14:43:13;;;;;;;3.97;3.42;;;;;;;12.79;100.00;99505.38;5304591;28;20024;-70
2022/09/26 14:45:51;;;;;;;3.10;1.88;;;;;;;12.95;100.00;99502.81;5303820;28;20029;-71
2022/09/26 14:48:25;;;;;;;2.60;2.00;;;;;;;12.80;100.00;99498.66;5305767;28;20016;-71
2022/09/26 14:51:20;;;;;;;3.30;3.00;;;;;;;12.88;100.00;99494.19;5304944;28;20031;-71
2022/09/26 14:54:05;;;;;;;3.20;2.05;;;;;;;13.09;100.00;99483.91;5304323;28;20028;-70
2022/09/26 14:56:45;;;;;;;1.73;1.40;;;;;;;12.81;100.00;99483.63;5304208;28;20169;-71
2022/09/26 14:59:37;;;;;;;2.00;1.80;;;;;;;12.72;100.00;99480.88;5303089;28;20028;-68
2022/09/26 15:02:39;;;;;;;2.45;1.77;;;;;;;12.84;100.00;99480.16;5303664;28;20072;-71
2022/09/26 15:05:22;;;;;;;2.08;1.58;;;;;;;13.03;100.00;99480.47;5309946;28;20028;-71
2022/09/26 15:07:54;;;;;;;2.72;1.95;;;;;;;12.89;100.00;99479.16;5307053;28;20094;-71
2022/09/26 15:10:40;;;;;;;2.85;1.42;;;;;;;12.88;100.00;99469.97;5283813;28;20052;-70
2022/09/26 15:13:24;;;;;;;2.83;2.20;;;;;;;12.84;100.00;99471.81;5302206;28;20016;-71
2022/09/26 15:16:06;;;;;;;1.23;1.10;;;;;;;12.72;100.00;99474.50;5303078;28;20387;-70
2022/09/26 15:19:02;;;;;;;2.10;1.42;;;;;;;12.80;100.00;99468.06;5303905;28;20032;-71
2022/09/26 15:21:41;;;;;;;1.67;1.45;;;;;;;12.73;100.00;99465.84;5290421;28;20116;-71
2022/09/26 15:24:22;;;;;;;2.10;1.30;;;;;;;12.69;100.00;99466.84;5297468;28;20478;-71
2022/09/26 15:27:18;;;;;;;3.92;1.60;;;;;;;12.79;100.00;99458.09;5302784;28;20059;-71
2022/09/26 15:29:51;;;;;;;2.38;1.30;;;;;;;12.75;100.00;99462.69;5303339;28;20122;-71
2022/09/26 15:32:30;;;;;;;1.65;1.40;;;;;;;12.66;100.00;99456.38;5282905;28;20490;-73
2022/09/26 15:35:02;;;;;;;2.80;1.45;;;;;;;12.55;100.00;99456.78;5303090;28;20036;-73
2022/09/26 15:37:35;;;;;;;1.40;1.25;;;;;;;12.75;100.00;99454.34;5303606;28;20078;-72
2022/09/26 15:40:20;;;;;;;1.20;1.02;;;;;;;12.53;100.00;99447.16;5312795;28;20031;-71
2022/09/26 15:43:14;;;;;;;1.50;1.20;;;;;;;12.56;100.00;99441.72;5302377;28;20028;-71
2022/09/26 15:45:46;;;;;;;1.52;1.20;;;;;;;12.77;100.00;99438.13;5302610;28;20288;-71
2022/09/26 15:48:17;;;;;;;1.42;1.25;;;;;;;12.65;100.00;99440.84;5302797;28;20526;-71
2022/09/26 15:50:59;;;;;;;2.72;1.45;;;;;;;12.56;100.00;99444.50;5303470;28;20077;-72
2022/09/26 15:53:40;;;;;;;1.50;1.10;;;;;;;12.64;100.00;99439.22;5303417;28;20051;-71
2022/09/26 15:56:25;;;;;;;1.98;1.52;;;;;;;12.83;100.00;99447.91;5308581;28;20024;-70
2022/09/26 15:59:00;;;;;;;1.92;1.38;;;;;;;13.03;100.00;99440.72;5311111;28;20031;-72
2022/09/26 16:01:40;;;;;;;1.23;1.13;;;;;;;12.78;100.00;99445.31;5303166;28;20062;-71
2022/09/26 16:04:20;;;;;;;1.38;1.27;;;;;;;12.98;100.00;99441.72;5302228;28;20024;-70
2022/09/26 16:06:52;;;;;;;2.72;1.73;;;;;;;12.78;100.00;99436.97;5303034;28;20539;-69
2022/09/26 16:09:32;;;;;;;2.00;1.80;;;;;;;12.76;100.00;99442.09;5302937;28;20031;-71
2022/09/26 16:12:29;;;;;;;1.60;1.48;;;;;;;12.73;100.00;99443.56;5303744;28;20028;-70
2022/09/26 16:15:12;;;;;;;1.73;1.58;;;;;;;12.95;100.00;99433.25;5306044;28;20055;-69
2022/09/26 16:17:52;;;;;;;1.98;1.27;;;;;;;12.71;100.00;99439.50;5302482;28;20487;-70
2022/09/26 16:20:27;;;;;;;1.48;1.38;;;;;;;12.80;100.00;99445.81;5303097;28;20044;-72
2022/09/26 16:22:59;;;;;;;1.90;1.60;;;;;;;12.69;100.00;99439.03;5304401;28;20020;-71
2022/09/26 16:25:46;;;;;;;1.90;1.73;;;;;;;12.64;100.00;99431.69;5307430;28;20016;-70
2022/09/26 16:28:46;;;;;;;1.75;1.50;;;;;;;12.59;100.00;99432.69;5294765;28;20067;-71
2022/09/26 16:31:25;;;;;;;2.05;1.70;;;;;;;12.57;100.00;99431.41;5309588;28;20047;-70
2022/09/26 16:33:57;;;;;;;3.40;2.63;;;;;;;12.61;100.00;99441.53;5307414;28;20104;-71
2022/09/26 16:36:33;;;;;;;2.92;1.77;;;;;;;12.58;100.00;99425.50;5307253;28;20024;-71
2022/09/26 16:39:15;;;;;;;2.08;1.80;;;;;;;12.57;100.00;99423.88;5306558;28;20021;-71
2022/09/26 16:42:04;;;;;;;2.30;1.77;;;;;;;12.50;100.00;99418.06;5305999;28;20031;-71
2022/09/26 16:44:41;;;;;;;3.55;1.92;;;;;;;12.47;100.00;99426.22;5306177;28;20020;-70
2022/09/26 16:47:32;;;;;;;4.47;2.35;;;;;;;12.55;100.00;99426.19;5295902;28;20020;-72
2022/09/26 16:50:28;;;;;;;8.43;6.68;;;;;;;12.54;100.00;99427.31;5307350;28;20051;-72
2022/09/26 16:53:05;;;;;;;7.97;5.90;;;;;;;12.54;100.00;99419.00;5306061;28;20036;-72
2022/09/26 16:55:37;;;;;;;8.27;7.22;;;;;;;12.50;100.00;99431.13;5307477;28;20490;-71
2022/09/26 16:58:11;;;;;;;5.65;4.50;;;;;;;12.51;100.00;99425.22;5306501;28;20020;-72
2022/09/26 17:03:35;;;;;;;6.93;5.55;;;;;;;12.48;100.00;99420.34;5307677;28;20032;-71
2022/09/26 17:06:06;;;;;;;27.00;18.00;;;;;;;12.47;100.00;99424.25;5286684;28;20024;-72
2022/09/26 17:08:37;;;;;;;15.70;11.77;;;;;;;12.56;100.00;99430.59;5306164;28;20028;-77
2022/09/26 17:11:13;;;;;;;19.75;10.82;;;;;;;12.59;100.00;99437.44;5306418;28;20027;-76
2022/09/26 17:13:48;;;;;;;12.57;7.53;;;;;;;12.51;100.00;99425.22;5306281;28;20039;-75
2022/09/26 17:16:22;;;;;;;9.25;5.85;;;;;;;12.54;100.00;99423.75;5306971;28;20272;-75
2022/09/26 17:18:55;;;;;;;19.35;13.60;;;;;;;12.57;100.00;99423.88;5305787;28;20025;-75
2022/09/26 17:21:27;;;;;;;8.30;7.45;;;;;;;12.58;100.00;99419.16;5306347;28;20095;-72
2022/09/26 17:23:59;;;;;;;7.40;6.20;;;;;;;12.64;100.00;99422.53;5306651;28;20130;-72
2022/09/26 17:26:33;;;;;;;7.43;5.13;;;;;;;12.50;100.00;99423.59;5305482;28;20031;-72
2022/09/26 17:29:13;;;;;;;6.88;4.60;;;;;;;12.54;100.00;99424.53;5306530;28;20417;-73
2022/09/26 17:31:54;;;;;;;7.20;4.40;;;;;;;12.52;100.00;99421.28;5306793;28;20024;-72
